Aérodrome :
LOGIN :

S'inscrire | Disclaimer

   EN    FR    IT 

 










Légende :    VFR   VFR Marginal   IFR   IFR Intensif   IFR Très Intensif
Visi : 
Plafond : 
>= 8 km
>= 3000ft
5 à 8 km
1000 à 3000 ft
1500m à 5 km
500 à 1000 ft
800 à 1500m
200 à 500 ft
< 800m
< 200 ft
Symboles :   Orages  Brouillard  Fortes neiges  Fortes précipitations  Vent > 20 kt
SIGMETs :   Divers  Orages  Givrage  Turbulence  Onde Orograph.  Cendres Volcan.







- Altitude de l'aérodrome : 26 ft
- Code IATA : KLX


LGKL - Kalamata AB

DERNIER METAR :
  • 210050Z AUTO 16009KT //// // ////// 21/16 Q1012 RE//

METARs EXPIRÉS :
  • 210020Z AUTO 16010KT //// // ////// 20/17 Q1012 RE//
  • 202350Z 17011G21KT 8000 FEW025 SCT035 BKN080 21/17 Q1012
  • 202320Z AUTO 16013KT //// // ////// 21/17 Q1012 RE//
  • 202250Z AUTO 15013KT //// // ////// 21/17 Q1013 RE//
  • 202220Z AUTO VRB03KT //// // ////// 17/14 Q1014 RE//

TAF TAF LGKL
Valide du 21 à 00h jusqu'au 21 à 09h UTC


202300Z 2100/2109 16012KT 9999 SCT025 SCT080
TEMPO 2100/2109 5000 RA SCT025 BKN080
PROB40
TEMPO 2100/2103 3000 TSRA FEW018CB BKN020 BKN080
BECMG 2101/2103 33008KT
PROB30
TEMPO 2103/2106 4000 BR FEW010 SCT025
Pas de NOTAMs connus pour ce terrain.
1 SIGMET publié pour la FIR Athinai (LGGG) :
 
Orages noyés dans la masse
LGGG SIGMET 1 VALID 210100/210500 LGAT
LGGG ATHINAI FIR/UIR EMBD TS OBS N OF 3600 AND W OF E02330 MOV E NC=



MET'MAP, la Météo Aéronautique d'un coup d'oeil ! - Copyright ORBIFLY Décembre 2007 - Disclaimer

ORBIFLY MET'MAP TEAM :

Programmation & Développement : Alexandra Zaïnal
Conception & Développement : Baudouin d'Aumeries
Co-Programmation & Développement : Marc-Olivier Méhu
Soutien technique & logistique : Manuel Goepfert

Contact : metmap@orbifly.com




SOURCES & CREDITS :

   NOAA